Weather at SCE Mohave Generating Station Heliport

Public forecast

Using degrees Fahrenheit for public forecast. Weather courtesy of forecast.io.

Closest aviation weather report (METAR) to SCE Mohave Generating Station Heliport

Closest report is Laughlin Bullhead International Airport, 1.6 nm (3.0 km) ENE. Retrieved 2021/06/13 11:35 UTC (4 minutes ago):

KIFP 131135Z AUTO 00000KT 10SM CLR 25/M09 A2973 RMK AO2

Closest aviation forecast (TAF) to SCE Mohave Generating Station Heliport

Closest forecast is Laughlin Bullhead International Airport, 1.6 nm (3.0 km) ENE. Retrieved 2021/06/13 06:22 UTC (5 hours ago):

TAF KIFP 130520Z 1306/1406 VRB05KT P6SM FEW250 FM131900 19015G24KT P6SM SKC FM140300 17010KT P6SM SKC